createdAt,value
2019-04-25T00:00:48.325Z,83.6103
2019-04-25T00:01:52.325Z,83.5340
2019-04-25T00:02:55.318Z,83.5965
2019-04-25T00:03:58.320Z,83.8407
2019-04-25T00:05:01.367Z,83.9261
2019-04-25T00:06:06.333Z,84.3702
2019-04-25T00:07:09.273Z,84.4266
2019-04-25T00:08:12.359Z,84.3122
2019-04-25T00:09:15.307Z,84.3076
2019-04-25T00:10:18.305Z,84.1932
2019-04-25T00:11:21.613Z,84.2206
2019-04-25T00:12:24.317Z,84.0742
2019-04-25T00:13:27.295Z,83.9353
2019-04-25T00:14:31.483Z,84.1733
2019-04-25T00:15:34.312Z,83.7888
2019-04-25T00:16:37.267Z,83.6210
2019-04-25T00:17:41.953Z,83.6423
2019-04-25T00:18:45.264Z,83.7858
2019-04-25T00:19:48.563Z,83.9719
2019-04-25T00:20:52.208Z,83.9261
2019-04-25T00:21:55.290Z,84.0879
2019-04-25T00:22:58.349Z,84.0787
2019-04-25T00:24:02.636Z,84.3381
2019-04-25T00:25:14.993Z,84.4114
2019-04-25T00:26:13.269Z,84.4251
2019-04-25T00:27:16.285Z,84.5533
2019-04-25T00:28:19.304Z,84.5258
2019-04-25T00:29:22.308Z,84.3153
2019-04-25T00:30:25.281Z,84.2023
2019-04-25T00:31:28.270Z,84.3885
2019-04-25T00:32:31.610Z,84.1001
2019-04-25T00:33:33.290Z,84.0879
2019-04-25T00:34:36.299Z,83.9780
2019-04-25T00:35:39.280Z,84.1321
2019-04-25T00:36:43.505Z,84.4709
2019-04-25T00:37:47.790Z,84.6082
2019-04-25T00:38:52.314Z,84.9149
2019-04-25T00:39:56.281Z,84.8508
2019-04-25T00:40:59.269Z,84.8341
2019-04-25T00:42:02.512Z,84.8844
2019-04-25T00:43:05.297Z,85.0340
2019-04-25T00:44:08.295Z,84.9149
2019-04-25T00:45:11.917Z,85.2033
2019-04-25T00:46:17.301Z,85.1453
2019-04-25T00:47:21.629Z,84.9058
2019-04-25T00:48:23.345Z,84.9699
2019-04-25T00:49:26.283Z,84.7059
2019-04-25T00:50:29.323Z,84.4068
2019-04-25T00:51:32.281Z,84.5304
2019-04-25T00:52:35.298Z,84.7227
2019-04-25T00:53:38.297Z,84.8295
2019-04-25T00:54:42.240Z,84.8234
2019-04-25T00:55:46.480Z,84.8615
2019-04-25T00:56:49.398Z,84.8920
2019-04-25T00:57:52.809Z,84.8386
2019-04-25T00:58:56.290Z,84.9439
2019-04-25T00:59:59.303Z,84.9760
2019-04-25T01:01:02.285Z,84.8234
2019-04-25T01:02:07.565Z,84.7639
2019-04-25T01:03:09.353Z,84.7700
2019-04-25T01:04:12.325Z,84.9622
2019-04-25T01:05:15.303Z,85.0126
2019-04-25T01:06:18.281Z,85.0156
2019-04-25T01:07:22.377Z,84.6220
2019-04-25T01:08:25.339Z,84.4266
2019-04-25T01:09:28.325Z,84.5258
2019-04-25T01:10:31.613Z,84.6998
2019-04-25T01:11:34.290Z,84.8112
2019-04-25T01:12:37.305Z,84.8112
2019-04-25T01:13:39.285Z,84.3442
2019-04-25T01:14:42.301Z,84.4862
2019-04-25T01:15:45.271Z,84.2054
2019-04-25T01:16:48.616Z,84.3351
2019-04-25T01:17:51.519Z,84.3946
2019-04-25T01:18:55.600Z,84.6601
2019-04-25T01:19:58.286Z,84.8783
2019-04-25T01:21:01.266Z,84.7242
2019-04-25T01:22:04.306Z,84.6861
2019-04-25T01:23:07.294Z,84.5914
2019-04-25T01:24:10.283Z,84.5991
2019-04-25T01:25:13.776Z,84.7318
2019-04-25T01:26:17.308Z,84.8569
2019-04-25T01:27:20.282Z,84.8707
2019-04-25T01:28:24.318Z,85.0248
2019-04-25T01:29:27.275Z,85.5238
2019-04-25T01:30:30.275Z,85.2689
2019-04-25T01:31:33.643Z,84.9378
2019-04-25T01:32:36.281Z,84.7044
2019-04-25T01:33:39.330Z,84.9882
2019-04-25T01:34:44.146Z,85.0248
2019-04-25T01:35:47.281Z,84.7974
2019-04-25T01:36:50.764Z,84.7837
2019-04-25T01:37:55.272Z,84.5808
2019-04-25T01:38:59.301Z,84.2054
2019-04-25T01:40:04.014Z,84.1505
2019-04-25T01:41:07.298Z,84.1154
2019-04-25T01:42:10.289Z,84.0650
2019-04-25T01:43:13.749Z,84.1520
2019-04-25T01:44:17.306Z,84.0223
2019-04-25T01:45:20.314Z,84.1230
2019-04-25T01:46:24.285Z,84.1291
2019-04-25T01:47:27.339Z,84.2329
2019-04-25T01:48:30.283Z,84.1184
2019-04-25T01:49:33.957Z,84.3626
2019-04-25T01:50:37.301Z,84.3900
2019-04-25T01:51:40.309Z,84.0497
2019-04-25T01:52:43.481Z,84.3107
2019-04-25T01:53:46.285Z,84.2466
2019-04-25T01:54:49.360Z,84.2847
2019-04-25T01:56:00.954Z,84.2374
2019-04-25T01:57:00.318Z,84.2969
2019-04-25T01:58:03.855Z,84.1886
2019-04-25T01:59:07.287Z,83.9780
2019-04-25T02:00:09.314Z,84.0360
2019-04-25T02:01:12.258Z,84.0055
2019-04-25T02:02:15.297Z,83.9399
2019-04-25T02:03:17.289Z,84.1245
2019-04-25T02:04:20.331Z,84.1245
2019-04-25T02:05:23.779Z,84.0650
2019-04-25T02:06:26.320Z,83.9643
2019-04-25T02:07:29.273Z,84.0681
2019-04-25T02:08:33.873Z,84.0284
2019-04-25T02:09:37.297Z,83.9857
2019-04-25T02:10:40.352Z,83.9734
2019-04-25T02:11:43.943Z,83.9490
2019-04-25T02:12:47.307Z,83.9963
2019-04-25T02:13:51.272Z,83.8849
2019-04-25T02:14:55.497Z,83.9826
2019-04-25T02:15:59.310Z,83.9857
2019-04-25T02:17:02.898Z,84.0360
2019-04-25T02:18:07.321Z,83.7247
2019-04-25T02:19:10.288Z,83.6759
2019-04-25T02:20:14.007Z,83.7674
2019-04-25T02:21:17.288Z,83.8087
2019-04-25T02:22:20.316Z,84.0635
2019-04-25T02:23:24.073Z,83.9048
2019-04-25T02:24:27.297Z,83.8727
2019-04-25T02:25:30.336Z,83.8453
2019-04-25T02:26:34.038Z,83.9231
2019-04-25T02:27:37.342Z,83.7446
2019-04-25T02:28:40.318Z,83.8483
2019-04-25T02:29:44.686Z,83.7568
2019-04-25T02:30:48.342Z,83.6713
2019-04-25T02:31:51.335Z,83.7568
2019-04-25T02:32:58.400Z,83.5706
2019-04-25T02:34:04.643Z,83.5096
2019-04-25T02:35:10.324Z,83.5523
2019-04-25T02:36:15.026Z,83.6942
2019-04-25T02:37:18.313Z,83.7491
2019-04-25T02:38:21.305Z,84.0375
2019-04-25T02:39:24.625Z,84.1825
2019-04-25T02:40:27.358Z,84.1733
2019-04-25T02:41:30.323Z,84.0787
2019-04-25T02:42:34.392Z,84.0192
2019-04-25T02:43:37.321Z,84.1505
2019-04-25T02:44:40.293Z,84.0497
2019-04-25T02:45:44.256Z,84.0604
2019-04-25T02:46:47.317Z,84.2100
2019-04-25T02:47:50.303Z,84.0696
2019-04-25T02:48:56.219Z,84.0818
2019-04-25T02:50:00.893Z,83.9857
2019-04-25T02:51:07.172Z,83.9414
2019-04-25T02:52:12.873Z,83.7674
2019-04-25T02:53:17.302Z,83.9734
2019-04-25T02:54:20.335Z,83.8819
2019-04-25T02:55:34.019Z,83.9551
2019-04-25T02:56:37.690Z,84.1001
2019-04-25T02:57:39.311Z,83.9994
2019-04-25T02:58:44.147Z,84.1337
2019-04-25T02:59:47.279Z,84.2481
2019-04-25T03:00:57.409Z,84.1825
2019-04-25T03:01:58.995Z,84.2603
2019-04-25T03:03:03.382Z,84.1703
2019-04-25T03:04:10.993Z,84.0497
2019-04-25T03:05:14.517Z,84.0467
2019-04-25T03:06:16.304Z,84.0146
2019-04-25T03:07:19.378Z,84.0818
2019-04-25T03:08:24.250Z,84.1382
2019-04-25T03:09:27.310Z,84.1016
2019-04-25T03:10:29.323Z,84.2161
2019-04-25T03:11:32.281Z,84.1184
2019-04-25T03:12:36.794Z,84.1794
2019-04-25T03:13:40.290Z,84.2939
2019-04-25T03:14:44.645Z,84.1474
2019-04-25T03:15:48.311Z,84.2161
2019-04-25T03:16:51.315Z,84.2206
2019-04-25T03:17:54.775Z,84.2527
2019-04-25T03:18:59.424Z,84.3473
2019-04-25T03:20:06.707Z,84.2100
2019-04-25T03:21:14.201Z,84.3030
2019-04-25T03:22:18.299Z,84.3214
2019-04-25T03:23:21.312Z,84.3397
2019-04-25T03:24:25.080Z,84.3854
2019-04-25T03:25:28.298Z,84.4205
2019-04-25T03:26:39.725Z,84.6738
2019-04-25T03:27:39.309Z,84.4953
2019-04-25T03:28:43.741Z,84.4816
2019-04-25T03:29:47.289Z,84.5960
2019-04-25T03:30:50.340Z,84.5228
2019-04-25T03:31:56.146Z,84.4633
2019-04-25T03:33:01.035Z,84.4205
2019-04-25T03:34:09.360Z,84.4816
2019-04-25T03:35:14.327Z,84.5396
2019-04-25T03:36:17.328Z,84.3839
2019-04-25T03:37:20.265Z,84.3565
2019-04-25T03:38:24.257Z,84.2420
2019-04-25T03:39:27.283Z,84.2283
2019-04-25T03:40:30.338Z,84.4480
2019-04-25T03:41:34.119Z,84.0879
2019-04-25T03:42:37.309Z,84.1794
2019-04-25T03:43:40.288Z,84.4175
2019-04-25T03:44:43.807Z,84.2847
2019-04-25T03:45:46.304Z,84.1917
2019-04-25T03:46:49.336Z,84.3656
2019-04-25T03:47:53.167Z,84.2741
2019-04-25T03:48:56.279Z,84.0452
2019-04-25T03:49:59.316Z,83.9414
2019-04-25T03:51:02.858Z,84.0375
2019-04-25T03:52:08.280Z,84.0330
2019-04-25T03:53:12.094Z,84.0970
2019-04-25T03:54:15.310Z,84.0589
2019-04-25T03:55:18.293Z,84.0970
2019-04-25T03:56:21.349Z,84.3153
2019-04-25T03:57:24.270Z,84.0085
2019-04-25T03:58:27.280Z,84.1367
2019-04-25T03:59:30.317Z,84.1321
2019-04-25T04:00:34.202Z,84.2512
2019-04-25T04:01:39.339Z,84.2100
2019-04-25T04:02:44.100Z,84.2557
2019-04-25T04:03:47.311Z,84.5640
2019-04-25T04:04:50.280Z,84.6876
2019-04-25T04:05:53.992Z,84.5258
2019-04-25T04:06:57.341Z,84.5899
2019-04-25T04:07:59.454Z,84.6952
2019-04-25T04:09:03.703Z,84.5350
2019-04-25T04:10:06.645Z,84.5365
2019-04-25T04:11:10.138Z,84.6311
2019-04-25T04:12:14.775Z,84.7013
2019-04-25T04:13:17.319Z,84.6998
2019-04-25T04:14:20.317Z,84.7654
2019-04-25T04:15:25.096Z,84.7013
2019-04-25T04:16:28.274Z,84.5579
2019-04-25T04:17:31.345Z,84.4480
2019-04-25T04:18:34.012Z,84.7181
2019-04-25T04:19:37.289Z,84.5075
2019-04-25T04:20:40.310Z,84.5045
2019-04-25T04:21:43.336Z,84.4846
2019-04-25T04:22:46.338Z,84.5274
2019-04-25T04:23:49.266Z,84.5640
2019-04-25T04:24:53.685Z,84.5548
2019-04-25T04:25:57.295Z,84.4678
2019-04-25T04:27:03.631Z,84.2329
2019-04-25T04:28:08.350Z,84.3381
2019-04-25T04:29:12.090Z,84.2741
2019-04-25T04:30:15.388Z,83.9506
2019-04-25T04:31:18.277Z,84.0818
2019-04-25T04:32:21.344Z,84.1657
2019-04-25T04:33:31.754Z,84.2008
2019-04-25T04:34:33.745Z,84.1520
2019-04-25T04:35:37.294Z,84.1932
2019-04-25T04:36:40.331Z,84.3061
2019-04-25T04:37:43.297Z,84.1794
2019-04-25T04:38:46.358Z,84.2573
2019-04-25T04:39:49.295Z,84.2161
2019-04-25T04:40:52.291Z,84.2481
2019-04-25T04:41:55.508Z,84.3854
2019-04-25T04:42:58.302Z,84.1917
2019-04-25T04:44:01.304Z,84.1962
2019-04-25T04:45:04.275Z,83.8865
2019-04-25T04:46:08.556Z,84.0558
2019-04-25T04:47:12.033Z,84.0360
2019-04-25T04:48:15.543Z,83.8544
2019-04-25T04:49:18.491Z,83.9231
2019-04-25T04:50:21.323Z,83.6469
2019-04-25T04:51:24.299Z,83.6576
2019-04-25T04:52:27.311Z,83.3310
2019-04-25T04:53:30.302Z,83.3692
2019-04-25T04:54:34.430Z,83.2319
2019-04-25T04:55:37.331Z,83.1311
2019-04-25T04:56:40.278Z,83.0900
2019-04-25T04:57:44.778Z,82.7009
2019-04-25T04:58:48.308Z,82.6459
2019-04-25T04:59:51.343Z,82.5956
2019-04-25T05:00:54.284Z,82.3285
2019-04-25T05:01:57.304Z,82.3804
2019-04-25T05:03:00.342Z,82.2324
2019-04-25T05:04:03.962Z,82.2370
2019-04-25T05:05:07.304Z,82.1332
2019-04-25T05:06:10.924Z,81.9318
2019-04-25T05:07:15.305Z,81.9135
2019-04-25T05:08:19.309Z,82.0829
2019-04-25T05:09:23.787Z,81.7716
2019-04-25T05:10:27.272Z,81.8799
2019-04-25T05:11:30.298Z,81.6281
2019-04-25T05:12:33.935Z,81.5793
2019-04-25T05:13:37.305Z,81.5915
2019-04-25T05:14:40.335Z,81.5045
2019-04-25T05:15:44.587Z,81.3916
2019-04-25T05:16:49.481Z,81.1749
2019-04-25T05:17:54.000Z,80.8789
2019-04-25T05:18:57.328Z,80.8240
2019-04-25T05:20:00.290Z,80.6394
2019-04-25T05:21:04.250Z,80.5493
2019-04-25T05:22:07.310Z,80.5081
2019-04-25T05:23:09.342Z,80.3647
2019-04-25T05:24:13.468Z,79.9680
2019-04-25T05:25:19.152Z,80.0961
2019-04-25T05:26:24.666Z,79.9313
2019-04-25T05:27:35.754Z,79.7238
2019-04-25T05:28:36.372Z,79.8520
2019-04-25T05:29:39.312Z,79.8749
2019-04-25T05:30:43.598Z,79.7208
2019-04-25T05:31:46.318Z,79.6246
2019-04-25T05:32:49.381Z,79.4553
2019-04-25T05:33:53.660Z,79.2569
2019-04-25T05:34:57.331Z,78.9822
2019-04-25T05:36:00.312Z,79.0112
2019-04-25T05:37:03.835Z,78.9639
2019-04-25T05:38:07.317Z,78.7808
2019-04-25T05:39:10.288Z,78.6160
2019-04-25T05:40:14.721Z,78.5428
2019-04-25T05:41:20.229Z,78.4741
2019-04-25T05:42:24.809Z,78.6572
2019-04-25T05:43:28.274Z,78.4482
2019-04-25T05:44:31.357Z,78.1491
2019-04-25T05:45:34.308Z,78.5657
2019-04-25T05:46:37.283Z,78.5397
2019-04-25T05:47:40.336Z,78.0133
2019-04-25T05:48:43.853Z,77.9110
2019-04-25T05:49:47.344Z,78.1033
2019-04-25T05:50:50.276Z,78.4009
2019-04-25T05:51:53.890Z,78.0804
2019-04-25T05:52:56.316Z,78.1491
2019-04-25T05:53:59.324Z,77.8515
2019-04-25T05:55:03.860Z,78.0255
2019-04-25T05:56:07.298Z,77.5784
2019-04-25T05:57:10.339Z,77.3175
2019-04-25T05:58:13.822Z,77.2885
2019-04-25T05:59:18.024Z,77.4594
2019-04-25T06:00:21.320Z,76.5850
2019-04-25T06:01:24.974Z,76.9787
2019-04-25T06:02:29.305Z,77.0138
2019-04-25T06:03:33.803Z,77.3343
2019-04-25T06:04:37.310Z,76.9909
2019-04-25T06:05:40.332Z,76.6995
2019-04-25T06:06:44.614Z,76.9650
2019-04-25T06:07:47.289Z,76.6812
2019-04-25T06:08:50.345Z,76.6247
2019-04-25T06:09:54.527Z,76.1898
2019-04-25T06:10:58.348Z,76.2768
2019-04-25T06:12:01.314Z,76.3333
2019-04-25T06:13:04.312Z,76.5560
2019-04-25T06:14:07.337Z,76.5759
2019-04-25T06:15:10.308Z,76.6384
2019-04-25T06:16:13.509Z,76.3043
2019-04-25T06:17:15.323Z,75.9518
2019-04-25T06:18:19.752Z,75.6466
2019-04-25T06:19:25.186Z,75.6771
2019-04-25T06:20:28.329Z,75.5032
2019-04-25T06:21:31.866Z,75.3079
2019-04-25T06:22:36.332Z,75.8022
2019-04-25T06:23:39.306Z,75.5398
2019-04-25T06:24:42.327Z,75.5734
2019-04-25T06:25:45.322Z,75.2758
2019-04-25T06:26:48.324Z,75.3811
2019-04-25T06:27:57.307Z,74.8653
2019-04-25T06:28:59.918Z,74.7372
2019-04-25T06:30:04.390Z,74.6288
2019-04-25T06:31:10.129Z,74.3084
2019-04-25T06:32:14.210Z,74.4991
2019-04-25T06:33:17.357Z,74.1665
2019-04-25T06:34:21.345Z,74.0642
2019-04-25T06:35:25.858Z,74.1970
2019-04-25T06:36:29.316Z,73.5470
2019-04-25T06:37:33.637Z,73.2235
2019-04-25T06:38:37.387Z,73.2876
2019-04-25T06:39:40.308Z,73.3593
2019-04-25T06:40:43.773Z,73.3822
2019-04-25T06:41:47.349Z,73.4920
2019-04-25T06:42:49.327Z,73.6171
2019-04-25T06:43:53.988Z,73.6065
2019-04-25T06:44:57.314Z,73.2692
2019-04-25T06:46:00.335Z,72.9885
2019-04-25T06:47:03.437Z,72.8878
2019-04-25T06:48:06.304Z,73.3684
2019-04-25T06:49:09.337Z,73.3822
2019-04-25T06:50:13.663Z,73.8216
2019-04-25T06:51:18.321Z,73.3135
2019-04-25T06:52:21.610Z,73.5622
2019-04-25T06:53:26.040Z,73.6751
2019-04-25T06:54:30.365Z,73.1121
2019-04-25T06:55:34.290Z,73.6858
2019-04-25T06:56:37.278Z,73.6904
2019-04-25T06:57:40.316Z,73.6904
2019-04-25T06:58:43.858Z,73.5531
2019-04-25T06:59:46.360Z,73.2036
2019-04-25T07:00:58.059Z,72.6223
2019-04-25T07:01:57.303Z,72.7611
2019-04-25T07:02:59.353Z,72.8237
2019-04-25T07:04:01.461Z,72.4575
2019-04-25T07:05:05.396Z,72.2149
2019-04-25T07:06:10.300Z,72.4224
2019-04-25T07:07:14.961Z,72.1553
2019-04-25T07:08:18.311Z,72.5032
2019-04-25T07:09:24.172Z,72.5994
2019-04-25T07:10:29.504Z,71.7296
2019-04-25T07:11:32.972Z,71.9509
2019-04-25T07:12:38.305Z,72.1828
2019-04-25T07:13:41.306Z,71.9631
2019-04-25T07:14:44.295Z,71.5343
2019-04-25T07:15:47.309Z,71.6442
2019-04-25T07:16:50.318Z,70.9285
2019-04-25T07:17:54.027Z,70.8888
2019-04-25T07:18:57.371Z,71.1299
2019-04-25T07:20:00.328Z,70.0328
2019-04-25T07:21:03.409Z,70.0145
2019-04-25T07:22:06.290Z,70.9072
2019-04-25T07:23:09.309Z,71.1620
2019-04-25T07:24:14.124Z,71.2764
2019-04-25T07:25:17.287Z,70.3853
2019-04-25T07:26:19.352Z,69.7627
2019-04-25T07:27:23.688Z,68.8472
2019-04-25T07:28:30.829Z,68.4672
2019-04-25T07:29:34.869Z,69.2073
2019-04-25T07:30:49.968Z,68.7053
2019-04-25T07:31:47.291Z,68.1880
2019-04-25T07:32:50.304Z,68.2750
2019-04-25T07:33:55.300Z,68.8014
2019-04-25T07:34:58.371Z,68.3803
2019-04-25T07:36:01.275Z,68.4077
2019-04-25T07:37:04.315Z,68.1376
2019-04-25T07:38:07.299Z,67.8889
2019-04-25T07:39:10.738Z,67.5929
2019-04-25T07:40:14.323Z,67.9988
2019-04-25T07:41:17.332Z,67.5196
2019-04-25T07:42:20.343Z,67.0146
2019-04-25T07:43:23.439Z,65.5222
2019-04-25T07:44:38.765Z,65.1102
2019-04-25T07:45:35.056Z,65.2674
2019-04-25T07:46:39.983Z,64.7166
2019-04-25T07:47:44.101Z,66.4424
2019-04-25T07:48:46.318Z,66.3508
2019-04-25T07:49:49.364Z,64.5258
2019-04-25T07:50:53.639Z,64.7730
2019-04-25T07:51:57.326Z,64.9882
2019-04-25T07:53:00.309Z,64.4602
2019-04-25T07:54:04.528Z,64.5930
2019-04-25T07:55:07.319Z,64.5380
2019-04-25T07:56:10.358Z,64.6067
2019-04-25T07:57:13.588Z,64.6113
2019-04-25T07:58:17.327Z,63.6820
2019-04-25T07:59:20.317Z,63.7613
2019-04-25T08:00:24.032Z,63.6545
2019-04-25T08:01:28.115Z,61.8463
2019-04-25T08:02:33.832Z,61.9944
2019-04-25T08:03:37.313Z,63.8575
2019-04-25T08:04:40.310Z,63.1327
2019-04-25T08:05:43.992Z,63.0838
2019-04-25T08:06:47.337Z,62.5376
2019-04-25T08:07:49.389Z,62.0981
2019-04-25T08:08:52.297Z,62.1302
2019-04-25T08:09:55.314Z,61.0636
2019-04-25T08:10:58.323Z,61.5991
2019-04-25T08:12:01.303Z,61.8753
2019-04-25T08:13:04.949Z,62.4109
2019-04-25T08:14:08.291Z,59.2294
2019-04-25T08:15:11.395Z,59.3057
2019-04-25T08:16:14.614Z,60.0015
2019-04-25T08:17:18.317Z,59.8932
2019-04-25T08:18:23.356Z,58.5138
2019-04-25T08:19:28.729Z,57.7874
2019-04-25T08:20:34.042Z,58.0301
2019-04-25T08:21:37.289Z,57.4289
2019-04-25T08:22:51.965Z,57.6623
2019-04-25T08:23:48.313Z,57.7966
2019-04-25T08:24:51.317Z,58.3230
2019-04-25T08:25:54.479Z,57.1374
2019-04-25T08:26:57.357Z,59.0219
2019-04-25T08:28:00.310Z,61.2802
2019-04-25T08:29:03.653Z,61.8387
2019-04-25T08:30:07.313Z,62.2370
2019-04-25T08:31:10.332Z,62.2766
2019-04-25T08:32:14.245Z,62.0157
2019-04-25T08:33:17.314Z,61.9303
2019-04-25T08:34:20.322Z,61.7914
2019-04-25T08:35:24.100Z,61.9150
2019-04-25T08:36:27.355Z,61.7136
2019-04-25T08:37:30.449Z,61.5808
2019-04-25T08:38:34.713Z,61.7411
2019-04-25T08:39:38.890Z,60.7630
2019-04-25T08:40:44.078Z,59.1653
2019-04-25T08:41:47.308Z,60.0015
2019-04-25T08:42:50.338Z,59.4125
2019-04-25T08:43:54.484Z,58.5061
2019-04-25T08:44:58.310Z,59.6918
2019-04-25T08:46:01.325Z,58.6053
2019-04-25T08:47:04.527Z,56.4309
2019-04-25T08:48:06.378Z,57.9293
2019-04-25T08:49:09.315Z,59.2615
2019-04-25T08:50:26.395Z,58.0850
2019-04-25T08:51:20.346Z,57.9614
2019-04-25T08:52:24.338Z,57.8607
2019-04-25T08:53:27.314Z,57.4517
2019-04-25T08:54:31.200Z,56.8383
2019-04-25T08:55:36.244Z,56.5515
2019-04-25T08:56:40.308Z,56.5316
2019-04-25T08:57:44.009Z,55.5520
2019-04-25T08:58:47.332Z,52.9397
2019-04-25T08:59:52.672Z,53.0800
2019-04-25T09:01:00.928Z,53.1991
2019-04-25T09:02:04.356Z,53.4142
2019-04-25T09:03:07.321Z,53.6950
2019-04-25T09:04:10.286Z,52.1660
2019-04-25T09:05:14.463Z,52.2118
2019-04-25T09:06:19.382Z,50.9987
2019-04-25T09:07:23.564Z,50.4616
2019-04-25T09:08:26.293Z,50.4433
2019-04-25T09:09:32.490Z,50.3578
2019-04-25T09:10:39.977Z,49.6056
2019-04-25T09:11:45.921Z,48.9204
2019-04-25T09:12:50.293Z,48.5069
2019-04-25T09:13:53.714Z,47.6600
2019-04-25T09:14:57.304Z,46.4515
2019-04-25T09:16:00.333Z,45.9113
2019-04-25T09:17:03.337Z,45.1255
2019-04-25T09:18:06.329Z,44.5304
2019-04-25T09:19:09.347Z,43.8621
2019-04-25T09:20:13.776Z,42.3407
2019-04-25T09:21:17.341Z,42.1256
2019-04-25T09:22:20.310Z,42.3453
2019-04-25T09:23:23.698Z,41.4481
2019-04-25T09:24:26.310Z,40.5920
2019-04-25T09:25:29.315Z,39.8703
2019-04-25T09:26:33.960Z,41.1566
2019-04-25T09:27:40.364Z,39.7864
2019-04-25T09:28:46.307Z,40.9506
2019-04-25T09:29:50.315Z,39.6094
2019-04-25T09:30:54.018Z,41.1093
2019-04-25T09:31:57.312Z,42.2309
2019-04-25T09:33:00.370Z,40.2441
2019-04-25T09:34:04.077Z,40.4547
2019-04-25T09:35:07.284Z,38.8861
2019-04-25T09:36:10.366Z,33.9300
2019-04-25T09:37:14.251Z,34.5937
2019-04-25T09:38:17.374Z,32.6070
2019-04-25T09:39:20.294Z,34.2321
2019-04-25T09:40:23.966Z,34.4839
2019-04-25T09:41:27.318Z,37.5265
2019-04-25T09:42:30.355Z,37.0901
2019-04-25T09:43:33.563Z,37.6455
2019-04-25T09:44:38.450Z,37.9202
2019-04-25T09:45:43.924Z,38.8220
2019-04-25T09:46:47.800Z,37.7493
2019-04-25T09:47:51.331Z,36.5438
2019-04-25T09:48:54.329Z,37.0901
2019-04-25T09:49:57.351Z,29.8833
2019-04-25T09:51:00.315Z,30.6859
2019-04-25T09:52:04.396Z,32.6085
2019-04-25T09:53:07.340Z,30.7027
2019-04-25T09:54:10.318Z,28.3909
2019-04-25T09:55:13.258Z,29.5277
2019-04-25T09:56:16.338Z,28.2078
2019-04-25T09:57:19.321Z,26.9642
2019-04-25T09:58:23.743Z,28.6442
2019-04-25T09:59:29.983Z,29.5354
2019-04-25T10:00:33.483Z,27.5273
2019-04-25T10:01:36.542Z,29.4484
2019-04-25T10:02:40.215Z,27.8691
2019-04-25T10:03:44.303Z,27.5761
2019-04-25T10:04:48.289Z,30.0313
2019-04-25T10:05:51.339Z,27.9469
2019-04-25T10:06:54.263Z,27.7455
2019-04-25T10:07:57.324Z,27.2236
2019-04-25T10:09:00.307Z,26.5431
2019-04-25T10:10:03.737Z,27.3930
2019-04-25T10:11:07.300Z,28.1621
2019-04-25T10:12:10.296Z,26.4607
2019-04-25T10:13:13.308Z,27.4586
2019-04-25T10:14:16.325Z,24.3168
2019-04-25T10:15:19.327Z,25.9510
2019-04-25T10:16:22.322Z,27.3884
2019-04-25T10:17:25.300Z,25.4475
2019-04-25T10:18:28.340Z,24.3809
2019-04-25T10:19:31.332Z,27.9393
2019-04-25T10:20:34.355Z,24.5518
2019-04-25T10:21:38.035Z,23.7324
2019-04-25T10:22:42.275Z,24.0375
2019-04-25T10:23:46.836Z,23.8605
2019-04-25T10:24:59.890Z,22.9679
2019-04-25T10:25:58.319Z,23.4241
2019-04-25T10:27:01.326Z,22.5055
2019-04-25T10:28:04.425Z,22.1668
2019-04-25T10:29:07.382Z,21.9455
2019-04-25T10:30:17.646Z,23.4562
2019-04-25T10:31:18.324Z,23.7736
2019-04-25T10:32:21.338Z,24.2069
2019-04-25T10:33:24.359Z,24.5182
2019-04-25T10:34:27.364Z,22.0066
2019-04-25T10:35:30.340Z,23.0076
2019-04-25T10:36:33.707Z,21.7319
2019-04-25T10:37:36.309Z,23.1266
2019-04-25T10:38:40.262Z,23.7827
2019-04-25T10:39:43.831Z,22.4399
2019-04-25T10:40:48.328Z,22.9038
2019-04-25T10:41:51.327Z,23.0594
2019-04-25T10:42:54.327Z,23.0716
2019-04-25T10:43:57.314Z,24.6616
2019-04-25T10:45:00.338Z,24.1657
2019-04-25T10:46:03.745Z,22.8260
2019-04-25T10:47:08.285Z,23.3341
2019-04-25T10:48:11.272Z,23.0625
2019-04-25T10:49:14.625Z,22.1927
2019-04-25T10:50:17.298Z,22.0798
2019-04-25T10:51:20.323Z,22.5406
2019-04-25T10:52:23.455Z,23.0121
2019-04-25T10:53:26.315Z,23.7781
2019-04-25T10:54:29.346Z,24.5090
2019-04-25T10:55:32.345Z,22.3255
2019-04-25T10:56:35.314Z,24.3168
2019-04-25T10:57:38.348Z,23.7629
2019-04-25T10:58:41.568Z,23.4836
2019-04-25T10:59:56.033Z,22.5879
2019-04-25T11:00:52.946Z,22.4506
2019-04-25T11:01:56.348Z,23.2273
2019-04-25T11:02:59.269Z,23.3616
2019-04-25T11:04:02.349Z,22.3133
2019-04-25T11:05:04.399Z,24.5884
2019-04-25T11:06:07.328Z,23.0030
2019-04-25T11:07:10.311Z,27.3472
2019-04-25T11:08:13.762Z,22.7237
2019-04-25T11:09:17.353Z,22.1164
2019-04-25T11:10:20.369Z,23.4165
2019-04-25T11:11:24.131Z,22.2995
2019-04-25T11:12:27.306Z,24.8524
2019-04-25T11:13:30.326Z,22.1103
2019-04-25T11:14:34.259Z,23.1952
2019-04-25T11:15:37.338Z,22.7298
2019-04-25T11:16:40.335Z,24.8295
2019-04-25T11:17:46.513Z,23.6088
2019-04-25T11:18:49.626Z,23.6484
2019-04-25T11:19:54.259Z,23.2792
2019-04-25T11:20:59.194Z,23.6042
2019-04-25T11:22:03.897Z,23.0533
2019-04-25T11:23:07.333Z,23.5615
2019-04-25T11:24:10.305Z,23.5248
2019-04-25T11:25:14.926Z,22.4048
2019-04-25T11:26:18.331Z,22.4994
2019-04-25T11:27:21.328Z,23.8560
2019-04-25T11:28:24.341Z,22.9068
2019-04-25T11:29:27.300Z,22.6459
2019-04-25T11:30:30.352Z,22.6276
2019-04-25T11:31:33.759Z,22.3301
2019-04-25T11:32:37.315Z,22.6047
2019-04-25T11:33:41.384Z,23.2425
2019-04-25T11:34:46.072Z,22.0844
2019-04-25T11:35:50.320Z,22.6566
2019-04-25T11:36:53.347Z,27.3945
2019-04-25T11:37:56.901Z,22.5467
2019-04-25T11:39:00.299Z,22.9480
2019-04-25T11:40:04.286Z,23.3341
2019-04-25T11:41:06.318Z,23.0549
2019-04-25T11:42:09.315Z,24.3946
2019-04-25T11:43:12.317Z,23.4653
2019-04-25T11:44:15.334Z,24.3824
2019-04-25T11:45:18.297Z,23.6133
2019-04-25T11:46:21.322Z,23.2456
2019-04-25T11:47:24.386Z,24.5884
2019-04-25T11:48:27.288Z,24.0391
2019-04-25T11:49:30.309Z,22.6734
2019-04-25T11:50:33.307Z,23.7415
2019-04-25T11:51:36.353Z,24.7150
2019-04-25T11:52:39.354Z,23.6500
2019-04-25T11:53:44.025Z,23.4348
2019-04-25T11:54:48.296Z,23.9292
2019-04-25T11:55:51.469Z,23.5111
2019-04-25T11:56:56.440Z,23.3829
2019-04-25T11:57:59.305Z,23.8880
2019-04-25T11:59:02.340Z,23.9231
2019-04-25T12:00:05.271Z,23.3890
2019-04-25T12:01:08.329Z,25.9464
2019-04-25T12:02:11.320Z,24.1306
2019-04-25T12:03:14.324Z,24.1672
2019-04-25T12:04:17.356Z,24.4129
2019-04-25T12:05:20.334Z,25.7145
2019-04-25T12:06:24.321Z,24.9317
2019-04-25T12:07:27.327Z,23.5203
2019-04-25T12:08:30.325Z,24.5869
2019-04-25T12:09:33.646Z,24.5563
2019-04-25T12:10:36.392Z,24.8386
2019-04-25T12:11:39.333Z,25.4078
2019-04-25T12:12:44.239Z,23.6362
2019-04-25T12:13:49.328Z,24.2451
2019-04-25T12:14:54.021Z,24.1794
2019-04-25T12:15:58.529Z,23.4562
2019-04-25T12:17:01.364Z,23.7583
2019-04-25T12:18:04.689Z,24.9714
2019-04-25T12:19:07.327Z,23.6484
2019-04-25T12:20:10.344Z,23.6912
2019-04-25T12:21:13.672Z,23.8651
2019-04-25T12:22:17.313Z,23.6912
2019-04-25T12:23:20.313Z,26.8437
2019-04-25T12:24:23.905Z,25.5161
2019-04-25T12:25:27.339Z,25.8778
2019-04-25T12:26:30.394Z,24.8264
2019-04-25T12:27:33.327Z,23.6484
2019-04-25T12:28:36.340Z,23.7324
2019-04-25T12:29:39.319Z,25.0721
2019-04-25T12:30:43.793Z,23.9322
2019-04-25T12:31:49.213Z,25.3376
2019-04-25T12:32:53.727Z,24.8402
2019-04-25T12:33:57.639Z,24.9393
2019-04-25T12:35:01.351Z,26.4469
2019-04-25T12:36:04.325Z,24.3580
2019-04-25T12:37:07.327Z,24.9348
2019-04-25T12:38:10.361Z,24.8585
2019-04-25T12:39:14.065Z,24.0528
2019-04-25T12:40:17.298Z,25.4154
2019-04-25T12:41:20.311Z,24.3626
2019-04-25T12:42:24.170Z,24.3000
2019-04-25T12:43:27.344Z,24.6555
2019-04-25T12:44:30.346Z,27.1138
2019-04-25T12:45:34.292Z,25.8564
2019-04-25T12:46:37.325Z,25.1881
2019-04-25T12:47:39.390Z,25.2613
2019-04-25T12:48:43.186Z,25.6168
2019-04-25T12:49:46.754Z,24.6418